createdAt,value
2018-09-28T00:01:02.168Z,8.03
2018-09-28T00:03:29.428Z,9.73
2018-09-28T00:05:56.681Z,10.20
2018-09-28T00:08:23.940Z,8.50
2018-09-28T00:10:51.189Z,11.17
2018-09-28T00:13:18.377Z,9.13
2018-09-28T00:15:45.589Z,11.73
2018-09-28T00:18:12.839Z,7.93
2018-09-28T00:20:40.045Z,9.37
2018-09-28T00:23:07.288Z,7.13
2018-09-28T00:25:34.507Z,8.40
2018-09-28T00:28:01.819Z,8.00
2018-09-28T00:30:29.070Z,8.97
2018-09-28T00:32:56.315Z,9.07
2018-09-28T00:35:23.795Z,12.97
2018-09-28T00:37:51.029Z,7.03
2018-09-28T00:40:18.240Z,7.67
2018-09-28T00:42:45.472Z,7.37
2018-09-28T00:45:12.660Z,6.63
2018-09-28T00:47:39.916Z,9.57
2018-09-28T00:50:07.156Z,8.03
2018-09-28T00:52:34.446Z,8.63
2018-09-28T00:55:01.710Z,8.50
2018-09-28T00:57:28.948Z,7.73
2018-09-28T00:59:56.145Z,9.13
2018-09-28T01:02:23.416Z,6.63
2018-09-28T01:04:50.736Z,6.07
2018-09-28T01:07:17.985Z,7.03
2018-09-28T01:09:45.212Z,10.07
2018-09-28T01:12:12.427Z,8.40
2018-09-28T01:14:39.650Z,6.40
2018-09-28T01:17:06.920Z,10.03
2018-09-28T01:19:34.177Z,7.90
2018-09-28T01:22:01.458Z,9.20
2018-09-28T01:24:28.785Z,10.63
2018-09-28T01:26:56.021Z,8.00
2018-09-28T01:29:23.228Z,8.87
2018-09-28T01:31:50.432Z,10.67
2018-09-28T01:34:17.679Z,10.67
2018-09-28T01:36:44.948Z,8.23
2018-09-28T01:39:12.176Z,8.97
2018-09-28T01:41:39.352Z,8.23
2018-09-28T01:44:06.650Z,11.53
2018-09-28T01:46:33.887Z,7.93
2018-09-28T01:49:01.604Z,8.03
2018-09-28T01:51:28.990Z,10.30
2018-09-28T01:53:56.273Z,9.83
2018-09-28T01:56:23.485Z,10.87
2018-09-28T01:58:50.717Z,8.43
2018-09-28T02:01:17.914Z,8.07
2018-09-28T02:03:45.136Z,8.80
2018-09-28T02:06:12.341Z,13.23
2018-09-28T02:08:39.722Z,10.43
2018-09-28T02:11:06.971Z,11.07
2018-09-28T02:13:34.225Z,11.17
2018-09-28T02:16:01.448Z,12.10
2018-09-28T02:18:28.681Z,12.90
2018-09-28T02:20:55.928Z,10.77
2018-09-28T02:23:23.161Z,10.10
2018-09-28T02:25:50.379Z,12.10
2018-09-28T02:28:18.591Z,11.43
2018-09-28T02:30:45.825Z,12.50
2018-09-28T02:33:13.091Z,13.77
2018-09-28T02:35:40.369Z,12.90
2018-09-28T02:38:07.588Z,12.63
2018-09-28T02:40:34.821Z,12.00
2018-09-28T02:43:02.740Z,13.33
2018-09-28T02:45:29.998Z,13.77
2018-09-28T02:47:57.232Z,12.70
2018-09-28T02:50:24.505Z,11.17
2018-09-28T02:52:51.755Z,11.60
2018-09-28T02:55:19.000Z,12.83
2018-09-28T02:57:46.240Z,10.07
2018-09-28T03:00:13.556Z,11.90
2018-09-28T03:02:40.799Z,11.13
2018-09-28T03:05:08.121Z,11.03
2018-09-28T03:07:35.334Z,10.40
2018-09-28T03:10:02.533Z,13.20
2018-09-28T03:12:29.772Z,11.60
2018-09-28T03:14:57.032Z,11.70
2018-09-28T03:17:24.305Z,20.27
2018-09-28T03:19:51.564Z,11.40
2018-09-28T03:22:18.759Z,17.50
2018-09-28T03:24:46.067Z,10.30
2018-09-28T03:27:13.310Z,13.20
2018-09-28T03:29:40.545Z,11.00
2018-09-28T03:32:07.813Z,11.53
2018-09-28T03:34:35.031Z,13.27
2018-09-28T03:37:02.257Z,10.70
2018-09-28T03:39:29.512Z,15.37
2018-09-28T03:41:56.795Z,12.07
2018-09-28T03:44:23.999Z,14.90
2018-09-28T03:46:51.165Z,14.83
2018-09-28T03:49:18.468Z,14.33
2018-09-28T03:51:45.770Z,13.23
2018-09-28T03:54:12.986Z,13.00
2018-09-28T03:56:40.170Z,11.83
2018-09-28T03:59:07.397Z,12.87
2018-09-28T04:01:34.637Z,12.87
2018-09-28T04:04:01.885Z,11.13
2018-09-28T04:06:29.072Z,12.77
2018-09-28T04:08:56.288Z,11.40
2018-09-28T04:11:23.529Z,10.60
2018-09-28T04:13:50.811Z,14.13
2018-09-28T04:16:18.098Z,14.07
2018-09-28T04:18:45.513Z,13.90
2018-09-28T04:21:12.745Z,18.17
2018-09-28T04:23:40.005Z,13.73
2018-09-28T04:26:07.220Z,13.03
2018-09-28T04:28:34.441Z,11.40
2018-09-28T04:31:01.680Z,12.13
2018-09-28T04:33:28.925Z,12.40
2018-09-28T04:35:56.165Z,14.83
2018-09-28T04:38:23.475Z,15.67
2018-09-28T04:40:50.782Z,15.50
2018-09-28T04:43:18.022Z,15.00
2018-09-28T04:45:45.359Z,13.83
2018-09-28T04:48:12.512Z,19.07
2018-09-28T04:50:39.748Z,17.37
2018-09-28T04:53:06.925Z,19.47
2018-09-28T04:55:34.277Z,24.57
2018-09-28T04:58:01.648Z,22.87
2018-09-28T05:00:28.860Z,18.50
2018-09-28T05:02:56.129Z,19.40
2018-09-28T05:08:04.477Z,15.67
2018-09-28T05:10:31.782Z,13.83
2018-09-28T05:12:59.045Z,15.23
2018-09-28T05:15:26.294Z,18.70
2018-09-28T05:17:53.561Z,17.37
2018-09-28T05:20:20.822Z,18.37
2018-09-28T05:22:48.067Z,15.90
2018-09-28T05:25:15.387Z,14.60
2018-09-28T05:27:42.710Z,14.83
2018-09-28T05:30:10.098Z,18.50
2018-09-28T05:32:37.464Z,16.03
2018-09-28T05:35:04.739Z,13.53
2018-09-28T05:37:31.985Z,15.83
2018-09-28T05:39:59.265Z,19.70
2018-09-28T05:42:26.516Z,16.40
2018-09-28T05:44:53.813Z,20.53
2018-09-28T05:47:22.054Z,17.67
2018-09-28T05:49:49.322Z,15.80
2018-09-28T05:52:16.606Z,17.03
2018-09-28T05:54:43.906Z,20.83
2018-09-28T05:57:11.158Z,17.87
2018-09-28T05:59:44.306Z,15.53
2018-09-28T06:02:17.440Z,13.80
2018-09-28T06:04:50.632Z,16.73
2018-09-28T06:07:17.877Z,16.23
2018-09-28T06:09:45.382Z,15.17
2018-09-28T06:12:12.681Z,14.60
2018-09-28T06:17:30.108Z,13.10
2018-09-28T06:19:57.387Z,13.57
2018-09-28T06:22:24.590Z,11.03
2018-09-28T06:24:52.034Z,12.23
2018-09-28T06:27:19.252Z,15.80
2018-09-28T06:29:46.511Z,11.27
2018-09-28T06:32:13.754Z,11.53
2018-09-28T06:34:41.016Z,11.73
2018-09-28T06:37:08.258Z,13.47
2018-09-28T06:39:35.513Z,17.63
2018-09-28T06:42:02.827Z,12.13
2018-09-28T06:44:29.894Z,11.53
2018-09-28T06:46:57.216Z,12.33
2018-09-28T06:49:24.437Z,14.77
2018-09-28T06:51:51.666Z,11.53
2018-09-28T06:54:18.883Z,13.17
2018-09-28T06:56:46.166Z,14.20
2018-09-28T06:59:13.328Z,11.20
2018-09-28T07:01:40.708Z,12.00
2018-09-28T07:04:07.995Z,14.07
2018-09-28T07:06:35.245Z,12.53
2018-09-28T07:09:03.120Z,13.07
2018-09-28T07:11:30.475Z,11.73
2018-09-28T07:13:57.702Z,12.37
2018-09-28T07:16:24.973Z,13.93
2018-09-28T07:18:52.217Z,12.83
2018-09-28T07:21:19.526Z,14.20
2018-09-28T07:23:46.822Z,16.13
2018-09-28T07:26:13.978Z,13.27
2018-09-28T07:28:41.204Z,12.17
2018-09-28T07:31:08.388Z,11.20
2018-09-28T07:33:35.617Z,12.83
2018-09-28T07:36:02.899Z,15.20
2018-09-28T07:38:30.131Z,12.40
2018-09-28T07:40:57.344Z,12.63
2018-09-28T07:43:24.524Z,15.80
2018-09-28T07:45:51.733Z,14.13
2018-09-28T07:48:22.021Z,15.63
2018-09-28T07:50:49.185Z,17.23
2018-09-28T07:53:16.436Z,14.10
2018-09-28T07:55:43.645Z,21.53
2018-09-28T07:58:10.884Z,13.70
2018-09-28T08:00:38.137Z,14.40
2018-09-28T08:03:05.400Z,16.20
2018-09-28T08:05:32.694Z,17.37
2018-09-28T08:07:59.917Z,11.53
2018-09-28T08:10:27.132Z,11.43
2018-09-28T08:12:54.428Z,10.77
2018-09-28T08:15:21.657Z,12.40
2018-09-28T08:17:48.936Z,13.30
2018-09-28T08:20:16.342Z,11.13
2018-09-28T08:22:43.558Z,13.50
2018-09-28T08:25:10.790Z,10.88
2018-09-28T08:27:38.061Z,10.48
2018-09-28T08:30:05.317Z,10.40
2018-09-28T08:32:32.565Z,9.03
2018-09-28T08:34:59.956Z,14.00
2018-09-28T08:37:27.192Z,11.83
2018-09-28T08:39:54.449Z,12.20
2018-09-28T08:42:21.861Z,10.43
2018-09-28T08:44:49.127Z,9.23
2018-09-28T08:47:16.378Z,10.68
2018-09-28T08:49:43.691Z,15.55
2018-09-28T08:52:10.953Z,11.12
2018-09-28T08:54:38.196Z,14.05
2018-09-28T08:57:05.387Z,13.03
2018-09-28T08:59:32.689Z,14.78
2018-09-28T09:01:59.925Z,12.33
2018-09-28T09:04:27.212Z,14.75
2018-09-28T09:06:54.505Z,13.28
2018-09-28T09:09:21.700Z,14.00
2018-09-28T09:11:48.988Z,15.85
2018-09-28T09:14:16.226Z,14.10
2018-09-28T09:16:43.421Z,11.57
2018-09-28T09:19:10.679Z,15.25
2018-09-28T09:21:37.912Z,13.78
2018-09-28T09:24:05.387Z,12.37
2018-09-28T09:26:32.541Z,10.55
2018-09-28T09:28:59.824Z,12.47
2018-09-28T09:31:27.086Z,11.68
2018-09-28T09:33:54.348Z,12.60
2018-09-28T09:36:21.815Z,12.50
2018-09-28T09:38:49.081Z,9.23
2018-09-28T09:41:16.335Z,13.08
2018-09-28T09:43:43.588Z,16.52
2018-09-28T09:46:10.828Z,13.25
2018-09-28T09:48:38.057Z,11.63
2018-09-28T09:51:05.364Z,14.78
2018-09-28T09:53:32.673Z,13.83
2018-09-28T09:55:59.950Z,14.93
2018-09-28T09:58:27.235Z,12.78
2018-09-28T10:01:00.046Z,17.55
2018-09-28T10:03:33.129Z,14.68
2018-09-28T10:06:00.364Z,15.28
2018-09-28T10:08:27.712Z,18.10
2018-09-28T10:10:54.937Z,15.83
2018-09-28T10:13:22.243Z,21.42
2018-09-28T10:15:49.508Z,16.95
2018-09-28T10:18:16.816Z,18.45
2018-09-28T10:20:44.094Z,17.65
2018-09-28T10:23:13.817Z,22.13
2018-09-28T10:25:41.074Z,23.30
2018-09-28T10:28:08.384Z,23.52
2018-09-28T10:30:35.549Z,25.50
2018-09-28T10:33:02.751Z,21.40
2018-09-28T10:35:30.061Z,22.48
2018-09-28T10:37:57.535Z,21.95
2018-09-28T10:40:24.809Z,18.90
2018-09-28T10:42:52.083Z,17.45
2018-09-28T10:45:19.450Z,23.35
2018-09-28T10:47:46.661Z,21.37
2018-09-28T10:50:13.904Z,17.02
2018-09-28T10:52:41.159Z,14.87
2018-09-28T10:55:08.320Z,16.87
2018-09-28T10:57:35.599Z,23.05
2018-09-28T11:00:02.876Z,16.27
2018-09-28T11:02:30.156Z,17.50
2018-09-28T11:04:57.400Z,18.65
2018-09-28T11:07:24.614Z,16.87
2018-09-28T11:09:51.914Z,17.57
2018-09-28T11:12:19.129Z,13.62
2018-09-28T11:14:46.384Z,14.18
2018-09-28T11:17:13.666Z,15.88
2018-09-28T11:19:40.885Z,15.00
2018-09-28T11:22:08.114Z,12.80
2018-09-28T11:24:35.337Z,10.72
2018-09-28T11:27:02.656Z,15.80
2018-09-28T11:29:29.870Z,12.85
2018-09-28T11:31:57.112Z,12.50
2018-09-28T11:34:24.364Z,12.47
2018-09-28T11:36:51.569Z,12.80
2018-09-28T11:39:19.020Z,14.68
2018-09-28T11:41:46.234Z,11.35
2018-09-28T11:44:13.446Z,9.83
2018-09-28T11:46:40.703Z,11.83
2018-09-28T11:49:08.028Z,11.90
2018-09-28T11:51:35.310Z,12.33
2018-09-28T11:54:02.539Z,12.33
2018-09-28T11:56:29.965Z,14.30
2018-09-28T11:58:57.251Z,10.45
2018-09-28T12:01:24.541Z,12.95
2018-09-28T12:03:51.820Z,11.10
2018-09-28T12:06:19.270Z,9.95
2018-09-28T12:08:46.468Z,11.50
2018-09-28T12:11:14.126Z,11.63
2018-09-28T12:13:41.616Z,11.88
2018-09-28T12:16:08.980Z,9.58
2018-09-28T12:18:36.414Z,11.90
2018-09-28T12:21:03.993Z,10.30
2018-09-28T12:23:31.254Z,10.03
2018-09-28T12:25:58.680Z,10.18
2018-09-28T12:28:26.031Z,8.98
2018-09-28T12:30:53.343Z,9.75
2018-09-28T12:33:20.794Z,8.58
2018-09-28T12:35:48.157Z,10.72
2018-09-28T12:38:15.454Z,9.93
2018-09-28T12:40:42.735Z,10.80
2018-09-28T12:43:10.002Z,8.30
2018-09-28T12:45:37.340Z,9.28
2018-09-28T12:48:04.577Z,7.83
2018-09-28T12:50:32.213Z,11.08
2018-09-28T12:52:59.517Z,9.48
2018-09-28T12:55:26.933Z,13.10
2018-09-28T12:57:54.245Z,9.93
2018-09-28T13:00:22.601Z,11.28
2018-09-28T13:02:50.035Z,9.63
2018-09-28T13:05:17.207Z,10.88
2018-09-28T13:07:44.527Z,9.45
2018-09-28T13:10:11.793Z,9.43
2018-09-28T13:12:39.102Z,9.33
2018-09-28T13:15:06.826Z,9.63
2018-09-28T13:17:33.900Z,10.35
2018-09-28T13:20:01.156Z,9.43
2018-09-28T13:22:28.452Z,9.38
2018-09-28T13:24:55.689Z,10.03
2018-09-28T13:27:23.011Z,12.47
2018-09-28T13:29:50.314Z,8.03
2018-09-28T13:32:17.566Z,12.73
2018-09-28T13:34:44.797Z,9.50
2018-09-28T13:37:12.077Z,9.20
2018-09-28T13:39:39.377Z,11.33
2018-09-28T13:42:06.638Z,12.70
2018-09-28T13:44:34.180Z,9.25
2018-09-28T13:47:01.468Z,11.88
2018-09-28T13:49:28.714Z,9.95
2018-09-28T13:51:58.897Z,10.20
2018-09-28T13:54:26.649Z,12.55
2018-09-28T13:56:54.017Z,10.72
2018-09-28T13:59:21.432Z,12.65
2018-09-28T14:01:48.918Z,11.75
2018-09-28T14:04:16.327Z,8.65
2018-09-28T14:06:43.489Z,10.88
2018-09-28T14:09:10.736Z,10.13
2018-09-28T14:11:38.228Z,8.98
2018-09-28T14:14:05.832Z,10.75
2018-09-28T14:16:33.143Z,10.32
2018-09-28T14:19:00.415Z,10.43
2018-09-28T14:21:30.740Z,9.33
2018-09-28T14:23:57.969Z,8.78
2018-09-28T14:26:25.323Z,7.95
2018-09-28T14:28:52.573Z,10.10
2018-09-28T14:31:19.745Z,9.83
2018-09-28T14:33:47.077Z,7.40
2018-09-28T14:36:14.324Z,9.70
2018-09-28T14:38:41.596Z,7.67
2018-09-28T14:41:08.836Z,9.55
2018-09-28T14:43:36.100Z,9.93
2018-09-28T14:46:03.347Z,10.38
2018-09-28T14:48:30.782Z,10.40
2018-09-28T14:50:58.083Z,13.90
2018-09-28T14:53:25.514Z,9.43
2018-09-28T14:55:52.898Z,11.65
2018-09-28T14:58:20.128Z,10.68
2018-09-28T15:00:47.486Z,11.00
2018-09-28T15:03:14.685Z,11.55
2018-09-28T15:05:41.957Z,10.50
2018-09-28T15:08:09.215Z,13.10
2018-09-28T15:10:36.533Z,10.68
2018-09-28T15:13:03.781Z,14.95
2018-09-28T15:15:30.973Z,15.10
2018-09-28T15:17:58.283Z,10.58
2018-09-28T15:20:25.589Z,14.13
2018-09-28T15:22:52.865Z,18.77
2018-09-28T15:25:20.297Z,15.03
2018-09-28T15:27:47.565Z,15.23
2018-09-28T15:30:14.876Z,17.75
2018-09-28T15:32:42.111Z,14.80
2018-09-28T15:35:09.309Z,10.65
2018-09-28T15:37:36.560Z,9.43
2018-09-28T15:40:03.899Z,6.12
2018-09-28T15:42:31.178Z,4.22
2018-09-28T15:44:58.440Z,6.67
2018-09-28T15:47:25.728Z,7.03
2018-09-28T15:49:53.021Z,7.75
2018-09-28T15:52:20.292Z,5.95
2018-09-28T15:54:47.775Z,6.33
2018-09-28T15:57:15.061Z,7.10
2018-09-28T15:59:42.329Z,5.95
2018-09-28T16:02:09.608Z,9.65
2018-09-28T16:04:36.907Z,8.05
2018-09-28T16:07:04.238Z,10.43
2018-09-28T16:09:31.666Z,5.33
2018-09-28T16:11:58.859Z,7.65
2018-09-28T16:14:26.077Z,9.60
2018-09-28T16:16:53.336Z,6.53
2018-09-28T16:19:20.593Z,7.40
2018-09-28T16:21:47.808Z,6.33
2018-09-28T16:24:15.054Z,7.10
2018-09-28T16:26:42.322Z,8.68
2018-09-28T16:29:09.621Z,8.28
2018-09-28T16:31:36.931Z,7.33
2018-09-28T16:34:04.232Z,6.33
2018-09-28T16:36:31.546Z,5.72
2018-09-28T16:38:58.792Z,9.40
2018-09-28T16:41:26.033Z,8.03
2018-09-28T16:43:56.194Z,7.75
2018-09-28T16:46:23.389Z,9.08
2018-09-28T16:48:50.683Z,5.70
2018-09-28T16:51:17.947Z,7.10
2018-09-28T16:53:45.126Z,4.78
2018-09-28T16:56:12.340Z,3.65
2018-09-28T16:58:39.575Z,4.07
2018-09-28T17:01:06.950Z,3.33
2018-09-28T17:03:34.310Z,4.27
2018-09-28T17:06:01.517Z,5.12
2018-09-28T17:08:28.801Z,4.30
2018-09-28T17:10:56.022Z,2.57
2018-09-28T17:13:23.345Z,2.67
2018-09-28T17:15:50.656Z,4.40
2018-09-28T17:18:17.876Z,4.07
2018-09-28T17:20:45.140Z,3.77
2018-09-28T17:23:12.369Z,2.43
2018-09-28T17:25:39.671Z,3.40
2018-09-28T17:28:06.880Z,2.60
2018-09-28T17:30:34.178Z,2.40
2018-09-28T17:33:01.427Z,1.83
2018-09-28T17:35:28.691Z,2.10
2018-09-28T17:37:55.877Z,1.80
2018-09-28T17:40:23.132Z,3.93
2018-09-28T17:42:50.390Z,3.20
2018-09-28T17:45:17.629Z,2.63
2018-09-28T17:47:45.082Z,2.50
2018-09-28T17:50:12.308Z,1.90
2018-09-28T17:52:39.602Z,2.00
2018-09-28T17:55:06.878Z,2.27
2018-09-28T17:57:34.523Z,2.23
2018-09-28T18:00:01.780Z,1.90
2018-09-28T18:02:29.021Z,1.70
2018-09-28T18:04:56.284Z,3.07
2018-09-28T18:07:23.611Z,2.00
2018-09-28T18:09:50.942Z,1.93
2018-09-28T18:12:18.193Z,2.73
2018-09-28T18:14:45.465Z,1.67
2018-09-28T18:17:12.731Z,2.40
2018-09-28T18:19:40.040Z,4.20
2018-09-28T18:22:07.236Z,2.23
2018-09-28T18:24:34.728Z,2.27
2018-09-28T18:27:01.955Z,2.67
2018-09-28T18:29:29.206Z,3.33
2018-09-28T18:31:56.461Z,5.73
2018-09-28T18:34:23.691Z,4.33
2018-09-28T18:36:50.904Z,3.40
2018-09-28T18:39:18.826Z,5.40
2018-09-28T18:41:46.106Z,4.93
2018-09-28T18:44:13.356Z,4.07
2018-09-28T18:46:40.579Z,4.20
2018-09-28T18:49:07.825Z,4.30
2018-09-28T18:51:35.041Z,6.77
2018-09-28T18:54:02.292Z,5.13
2018-09-28T18:56:30.303Z,5.20
2018-09-28T18:58:57.558Z,5.27
2018-09-28T19:01:24.912Z,5.23
2018-09-28T19:03:52.140Z,5.83
2018-09-28T19:06:19.450Z,8.43
2018-09-28T19:08:46.656Z,4.93
2018-09-28T19:11:13.897Z,7.63
2018-09-28T19:13:41.340Z,6.97
2018-09-28T19:16:08.549Z,7.03
2018-09-28T19:18:35.791Z,6.60
2018-09-28T19:21:03.017Z,4.63
2018-09-28T19:23:30.201Z,6.40
2018-09-28T19:25:57.433Z,4.50
2018-09-28T19:28:24.685Z,5.83
2018-09-28T19:30:51.990Z,5.53
2018-09-28T19:33:19.213Z,4.77
2018-09-28T19:35:46.434Z,4.70
2018-09-28T19:38:13.649Z,3.50
2018-09-28T19:40:40.860Z,4.60
2018-09-28T19:43:08.103Z,4.73
2018-09-28T19:45:35.328Z,4.23
2018-09-28T19:48:02.581Z,2.37
2018-09-28T19:50:29.856Z,5.40
2018-09-28T19:52:57.052Z,3.57
2018-09-28T19:55:24.333Z,6.07
2018-09-28T19:57:51.625Z,4.03
2018-09-28T20:00:18.842Z,5.27
2018-09-28T20:02:46.276Z,4.30
2018-09-28T20:05:13.528Z,6.13
2018-09-28T20:07:40.953Z,4.07
2018-09-28T20:10:08.216Z,5.33
2018-09-28T20:12:35.448Z,5.10
2018-09-28T20:15:02.651Z,5.00
2018-09-28T20:17:30.180Z,3.30
2018-09-28T20:19:57.463Z,5.20
2018-09-28T20:22:24.756Z,4.30
2018-09-28T20:24:51.981Z,11.53
2018-09-28T20:27:19.213Z,4.00
2018-09-28T20:29:46.512Z,5.80
2018-09-28T20:32:13.786Z,4.67
2018-09-28T20:34:41.003Z,5.87
2018-09-28T20:37:08.189Z,4.03
2018-09-28T20:39:35.622Z,4.10
2018-09-28T20:42:02.873Z,5.97
2018-09-28T20:44:30.108Z,4.57
2018-09-28T20:46:57.384Z,6.30
2018-09-28T20:49:24.647Z,13.90
2018-09-28T20:51:51.921Z,4.47
2018-09-28T20:54:19.363Z,3.83
2018-09-28T20:56:46.596Z,3.60
2018-09-28T20:59:14.051Z,3.70
2018-09-28T21:01:41.271Z,5.07
2018-09-28T21:04:08.553Z,5.50
2018-09-28T21:06:35.753Z,6.17
2018-09-28T21:09:04.757Z,5.33
2018-09-28T21:11:33.729Z,2.70
2018-09-28T21:14:01.010Z,6.47
2018-09-28T21:16:28.291Z,7.40
2018-09-28T21:18:55.538Z,5.43
2018-09-28T21:21:22.728Z,6.57
2018-09-28T21:23:49.949Z,5.77
2018-09-28T21:26:17.209Z,5.90
2018-09-28T21:28:44.525Z,6.17
2018-09-28T21:31:11.760Z,5.93
2018-09-28T21:33:43.047Z,5.13
2018-09-28T21:36:10.317Z,7.40
2018-09-28T21:38:37.584Z,4.40
2018-09-28T21:41:04.981Z,6.77
2018-09-28T21:43:32.205Z,10.50
2018-09-28T21:45:59.490Z,8.90
2018-09-28T21:48:26.738Z,6.97
2018-09-28T21:50:54.002Z,6.47
2018-09-28T21:53:21.272Z,5.17
2018-09-28T21:55:48.553Z,8.27
2018-09-28T21:58:15.791Z,6.00
2018-09-28T22:00:43.038Z,6.33
2018-09-28T22:03:10.362Z,6.37
2018-09-28T22:05:37.572Z,5.67
2018-09-28T22:08:06.958Z,4.50
2018-09-28T22:10:34.260Z,5.47
2018-09-28T22:13:01.516Z,12.50
2018-09-28T22:15:28.718Z,8.33
2018-09-28T22:17:55.980Z,8.40
2018-09-28T22:20:23.180Z,7.63
2018-09-28T22:22:50.411Z,13.20
2018-09-28T22:25:17.662Z,4.27
2018-09-28T22:27:44.996Z,10.37
2018-09-28T22:30:12.223Z,4.30
2018-09-28T22:32:39.473Z,7.70
2018-09-28T22:35:06.740Z,7.77
2018-09-28T22:37:33.961Z,3.90
2018-09-28T22:40:01.172Z,6.57
2018-09-28T22:42:28.422Z,10.77
2018-09-28T22:44:55.655Z,4.03
2018-09-28T22:47:22.985Z,7.70
2018-09-28T22:49:50.244Z,6.83
2018-09-28T22:52:17.557Z,5.07
2018-09-28T22:54:44.754Z,10.00
2018-09-28T22:57:12.095Z,7.20
2018-09-28T22:59:39.329Z,4.57
2018-09-28T23:02:06.528Z,5.60
2018-09-28T23:04:33.741Z,7.40
2018-09-28T23:07:01.023Z,5.50
2018-09-28T23:09:28.294Z,9.60
2018-09-28T23:11:55.624Z,9.70
2018-09-28T23:14:22.857Z,4.60
2018-09-28T23:16:50.053Z,7.27
2018-09-28T23:19:17.320Z,3.10
2018-09-28T23:21:44.587Z,5.73
2018-09-28T23:24:11.784Z,5.00
2018-09-28T23:26:39.045Z,7.73
2018-09-28T23:29:06.266Z,4.30
2018-09-28T23:31:33.539Z,7.70
2018-09-28T23:34:00.765Z,6.50
2018-09-28T23:36:28.055Z,7.63
2018-09-28T23:38:55.294Z,5.23
2018-09-28T23:41:22.740Z,4.37
2018-09-28T23:43:50.009Z,6.73
2018-09-28T23:46:17.209Z,9.00
2018-09-28T23:48:44.422Z,5.07
2018-09-28T23:51:11.659Z,7.33
2018-09-28T23:53:39.061Z,6.73
2018-09-28T23:56:06.342Z,4.83
2018-09-28T23:58:36.492Z,6.87
